GAP2148 RPVI-RPLL
Flight info
| Callsign | GAP2148 |
|---|---|
| Flight time | N/A |
| Altitude | 32000 |
| Route | LAMBO1N LAMBO B472 IBAGO IBAGO5R |
| Aircraft | B738/M-SDE2E3FGHIRWXY/LB1 |
Departure
| Time | N/A |
|---|---|
| Airport | Iloilo International Airport (RPVI) |
Arrival
| Time | 2026-05-07 15:58 |
|---|---|
| Airport | Ninoy Aquino International Airport (RPLL) |
| Time | Latitude | Longitude | Altitude | Speed | Heading |
|---|---|---|---|---|---|
| 2026-05-07 15:53 | 14.40289 | 120.82947 | 3926 ft | 182 kts | 62° |
| 2026-05-07 15:53 | 14.40904 | 120.84049 | 3693 ft | 174 kts | 63° |
| 2026-05-07 15:53 | 14.41503 | 120.85128 | 3493 ft | 174 kts | 63° |
| 2026-05-07 15:54 | 14.42102 | 120.86201 | 3159 ft | 163 kts | 63° |
| 2026-05-07 15:54 | 14.42644 | 120.87176 | 2908 ft | 158 kts | 63° |
| 2026-05-07 15:54 | 14.43177 | 120.88131 | 2757 ft | 152 kts | 63° |
| 2026-05-07 15:54 | 14.43706 | 120.89085 | 2557 ft | 152 kts | 63° |
| 2026-05-07 15:55 | 14.44241 | 120.90048 | 2339 ft | 155 kts | 63° |
| 2026-05-07 15:55 | 14.44776 | 120.91007 | 2114 ft | 157 kts | 63° |
| 2026-05-07 15:55 | 14.45315 | 120.91975 | 1889 ft | 153 kts | 63° |
| 2026-05-07 15:55 | 14.45832 | 120.92907 | 1678 ft | 149 kts | 63° |
| 2026-05-07 15:56 | 14.46345 | 120.93830 | 1489 ft | 147 kts | 63° |
| 2026-05-07 15:56 | 14.46864 | 120.94765 | 1304 ft | 151 kts | 62° |
| 2026-05-07 15:56 | 14.47380 | 120.95686 | 1074 ft | 148 kts | 63° |
| 2026-05-07 15:56 | 14.47883 | 120.96593 | 879 ft | 143 kts | 63° |
| 2026-05-07 15:57 | 14.48393 | 120.97511 | 734 ft | 151 kts | 63° |
| 2026-05-07 15:57 | 14.48913 | 120.98438 | 524 ft | 147 kts | 61° |
| 2026-05-07 15:57 | 14.49426 | 120.99352 | 310 ft | 146 kts | 63° |
| 2026-05-07 15:57 | 14.49911 | 121.00232 | 133 ft | 138 kts | 63° |
| 2026-05-07 15:58 | 14.50319 | 121.00982 | 84 ft | 86 kts | 61° |
| 2026-05-07 15:58 | 14.50542 | 121.01384 | 84 ft | 55 kts | 61° |
| 2026-05-07 15:58 | 14.50701 | 121.01651 | 84 ft | 27 kts | 49° |
| 2026-05-07 15:58 | 14.50828 | 121.01770 | 84 ft | 21 kts | 36° |
| 2026-05-07 15:59 | 14.50899 | 121.01778 | 84 ft | 6 kts | 324° |
| 2026-05-07 15:59 | 14.50907 | 121.01768 | 84 ft | 3 kts | 295° |
| 2026-05-07 15:59 | 14.50893 | 121.01717 | 84 ft | 10 kts | 237° |
| 2026-05-07 15:59 | 14.50891 | 121.01654 | 84 ft | 9 kts | 318° |
| 2026-05-07 16:00 | 14.50941 | 121.01614 | 84 ft | 7 kts | 326° |
| 2026-05-07 16:00 | 14.50979 | 121.01580 | 84 ft | 7 kts | 316° |
| 2026-05-07 16:00 | 14.51023 | 121.01536 | 84 ft | 9 kts | 315° |
| 2026-05-07 16:00 | 14.51073 | 121.01480 | 84 ft | 11 kts | 314° |
| 2026-05-07 16:01 | 14.51127 | 121.01424 | 84 ft | 10 kts | 315° |
| 2026-05-07 16:01 | 14.51154 | 121.01386 | 84 ft | 2 kts | 261° |
| 2026-05-07 16:01 | 14.51143 | 121.01380 | 84 ft | 1 kts | 190° |
| 2026-05-07 16:01 | 14.51130 | 121.01380 | 84 ft | 2 kts | 180° |
| 2026-05-07 16:02 | 14.51116 | 121.01379 | 84 ft | 1 kts | 194° |
| 2026-05-07 16:02 | 14.51106 | 121.01372 | 84 ft | 2 kts | 219° |
| 2026-05-07 16:02 | 14.51098 | 121.01365 | 84 ft | 0 kts | 219° |
| 2026-05-07 16:02 | 14.51095 | 121.01363 | 84 ft | 0 kts | 220° |